Hauptseite
METAR-TAF:

METAR-TAF

Flughäfen :

Bohrplattform

Troll C, Norwegen

Breite: 60-53-09N, Länge: 3-36-35E, Höhe: 20 m

Beobachtung

Neuester Wetterbericht von vor 26 Minuten, um 22:50 UTC
Wind 21 kt aus Süd
Temperatur 10°C
Luftfeuchtigkeit 93%
Luftdruck 1033 hPa
Sichtweite: 8000 m

METAR: ENQC 162250Z AUTO 17021KT 8000NDV OVC004/// 10/09 Q1033 W///S4

Zeit: 00:16 (23:16 UTC)


TAF: fehlend

Wetterbeobachtungen und Prognosen von mehr als 4000 Flughäfen (METAR und TAF Bericht).

Die verfügbaren Stationen werden durch gelbe und rote Markierungen auf der Karte dargestellt.

Führen Sie die Maus auf sie, um den Namen der Station zu sehen.

Darauf klicken, um die Beobachtung von Wetterbeobachtungen und Prognosen zu sehen.

Um die Karte zu ändern : klicken Sie auf den grünen Tasten mit einem schwarzen Kreuz Zum Vergrößern, auf den grünen Button mit einem Gedankenstrich zu verkleinern, oder auf die grünen Pfeile für benachbarte Karten.


METAR-TAF: